sensor_id;sensor_type;location;lat;lon;timestamp;P1;durP1;ratioP1;P2;durP2;ratioP2
4885;SDS011;2457;51.788;6.136;2024-01-07T00:00:39;20.90;;;10.90;;
4885;SDS011;2457;51.788;6.136;2024-01-07T00:03:06;25.43;;;12.20;;
4885;SDS011;2457;51.788;6.136;2024-01-07T00:05:35;19.93;;;10.90;;
4885;SDS011;2457;51.788;6.136;2024-01-07T00:08:04;23.37;;;12.40;;
4885;SDS011;2457;51.788;6.136;2024-01-07T00:10:31;24.40;;;12.50;;
4885;SDS011;2457;51.788;6.136;2024-01-07T00:12:58;26.63;;;13.17;;
4885;SDS011;2457;51.788;6.136;2024-01-07T00:15:26;24.13;;;12.73;;
4885;SDS011;2457;51.788;6.136;2024-01-07T00:17:54;24.40;;;13.77;;
4885;SDS011;2457;51.788;6.136;2024-01-07T00:20:21;25.97;;;13.13;;
4885;SDS011;2457;51.788;6.136;2024-01-07T00:22:49;26.07;;;13.80;;
4885;SDS011;2457;51.788;6.136;2024-01-07T00:25:16;23.27;;;13.40;;
4885;SDS011;2457;51.788;6.136;2024-01-07T00:27:45;26.10;;;14.17;;
4885;SDS011;2457;51.788;6.136;2024-01-07T00:30:13;29.77;;;15.13;;
4885;SDS011;2457;51.788;6.136;2024-01-07T00:32:40;24.80;;;13.30;;
4885;SDS011;2457;51.788;6.136;2024-01-07T00:35:08;23.70;;;12.10;;
4885;SDS011;2457;51.788;6.136;2024-01-07T00:37:35;24.13;;;12.77;;
4885;SDS011;2457;51.788;6.136;2024-01-07T00:40:04;20.67;;;11.80;;
4885;SDS011;2457;51.788;6.136;2024-01-07T00:42:32;19.27;;;10.93;;
4885;SDS011;2457;51.788;6.136;2024-01-07T00:44:59;24.93;;;14.53;;
4885;SDS011;2457;51.788;6.136;2024-01-07T00:47:27;22.23;;;13.20;;
4885;SDS011;2457;51.788;6.136;2024-01-07T00:49:54;26.27;;;13.47;;
4885;SDS011;2457;51.788;6.136;2024-01-07T00:52:21;21.20;;;12.17;;
4885;SDS011;2457;51.788;6.136;2024-01-07T00:54:49;22.00;;;12.60;;
4885;SDS011;2457;51.788;6.136;2024-01-07T00:57:17;23.27;;;13.00;;
4885;SDS011;2457;51.788;6.136;2024-01-07T00:59:44;20.80;;;11.43;;
4885;SDS011;2457;51.788;6.136;2024-01-07T01:02:11;21.80;;;11.43;;
4885;SDS011;2457;51.788;6.136;2024-01-07T01:04:39;21.17;;;10.90;;
4885;SDS011;2457;51.788;6.136;2024-01-07T01:07:06;21.37;;;11.10;;
4885;SDS011;2457;51.788;6.136;2024-01-07T01:09:37;18.03;;;10.50;;
4885;SDS011;2457;51.788;6.136;2024-01-07T01:12:05;21.73;;;11.20;;
4885;SDS011;2457;51.788;6.136;2024-01-07T01:14:32;19.40;;;10.00;;
4885;SDS011;2457;51.788;6.136;2024-01-07T01:17:02;15.77;;;9.50;;
4885;SDS011;2457;51.788;6.136;2024-01-07T01:19:30;17.90;;;9.67;;
4885;SDS011;2457;51.788;6.136;2024-01-07T01:21:57;18.83;;;9.67;;
4885;SDS011;2457;51.788;6.136;2024-01-07T01:24:24;18.47;;;9.90;;
4885;SDS011;2457;51.788;6.136;2024-01-07T01:26:52;18.13;;;9.60;;
4885;SDS011;2457;51.788;6.136;2024-01-07T01:29:19;16.10;;;9.25;;
4885;SDS011;2457;51.788;6.136;2024-01-07T01:31:46;17.40;;;9.87;;
4885;SDS011;2457;51.788;6.136;2024-01-07T01:34:13;14.20;;;8.23;;
4885;SDS011;2457;51.788;6.136;2024-01-07T01:36:41;16.13;;;9.27;;
4885;SDS011;2457;51.788;6.136;2024-01-07T01:39:08;14.33;;;8.13;;
4885;SDS011;2457;51.788;6.136;2024-01-07T01:41:35;16.80;;;8.87;;
4885;SDS011;2457;51.788;6.136;2024-01-07T01:44:02;16.90;;;9.07;;
4885;SDS011;2457;51.788;6.136;2024-01-07T01:46:35;16.07;;;8.67;;
4885;SDS011;2457;51.788;6.136;2024-01-07T01:49:05;14.73;;;8.10;;
4885;SDS011;2457;51.788;6.136;2024-01-07T01:51:33;15.10;;;7.97;;
4885;SDS011;2457;51.788;6.136;2024-01-07T01:54:03;14.30;;;8.33;;
4885;SDS011;2457;51.788;6.136;2024-01-07T01:56:30;13.20;;;8.40;;
4885;SDS011;2457;51.788;6.136;2024-01-07T01:58:58;14.23;;;8.80;;
4885;SDS011;2457;51.788;6.136;2024-01-07T02:01:26;13.67;;;8.03;;
4885;SDS011;2457;51.788;6.136;2024-01-07T02:03:54;16.23;;;9.40;;
4885;SDS011;2457;51.788;6.136;2024-01-07T02:06:21;16.63;;;8.03;;
4885;SDS011;2457;51.788;6.136;2024-01-07T02:08:50;15.33;;;7.73;;
4885;SDS011;2457;51.788;6.136;2024-01-07T02:11:18;16.83;;;8.10;;
4885;SDS011;2457;51.788;6.136;2024-01-07T02:13:52;16.37;;;8.80;;
4885;SDS011;2457;51.788;6.136;2024-01-07T02:16:20;15.87;;;8.47;;
4885;SDS011;2457;51.788;6.136;2024-01-07T02:18:47;13.17;;;7.80;;
4885;SDS011;2457;51.788;6.136;2024-01-07T02:21:15;14.50;;;8.30;;
4885;SDS011;2457;51.788;6.136;2024-01-07T02:23:56;18.40;;;9.40;;
4885;SDS011;2457;51.788;6.136;2024-01-07T02:26:11;16.10;;;7.93;;
4885;SDS011;2457;51.788;6.136;2024-01-07T02:28:39;13.50;;;7.40;;
4885;SDS011;2457;51.788;6.136;2024-01-07T02:31:06;12.93;;;7.67;;
4885;SDS011;2457;51.788;6.136;2024-01-07T02:33:35;10.40;;;6.43;;
4885;SDS011;2457;51.788;6.136;2024-01-07T02:36:02;10.90;;;6.83;;
4885;SDS011;2457;51.788;6.136;2024-01-07T02:38:29;11.23;;;7.10;;
4885;SDS011;2457;51.788;6.136;2024-01-07T02:41:06;12.63;;;7.33;;
4885;SDS011;2457;51.788;6.136;2024-01-07T02:43:29;11.57;;;6.80;;
4885;SDS011;2457;51.788;6.136;2024-01-07T02:45:58;11.50;;;7.17;;
4885;SDS011;2457;51.788;6.136;2024-01-07T02:48:25;12.40;;;7.07;;
4885;SDS011;2457;51.788;6.136;2024-01-07T02:50:53;14.20;;;7.20;;
4885;SDS011;2457;51.788;6.136;2024-01-07T02:53:20;12.30;;;5.93;;
4885;SDS011;2457;51.788;6.136;2024-01-07T02:55:48;10.63;;;6.10;;
4885;SDS011;2457;51.788;6.136;2024-01-07T02:58:15;11.23;;;6.20;;
4885;SDS011;2457;51.788;6.136;2024-01-07T03:00:44;10.10;;;5.30;;
4885;SDS011;2457;51.788;6.136;2024-01-07T03:03:17;7.73;;;5.03;;
4885;SDS011;2457;51.788;6.136;2024-01-07T03:05:43;10.20;;;6.10;;
4885;SDS011;2457;51.788;6.136;2024-01-07T03:08:11;11.90;;;5.73;;
4885;SDS011;2457;51.788;6.136;2024-01-07T03:10:38;10.60;;;5.67;;
4885;SDS011;2457;51.788;6.136;2024-01-07T03:13:05;11.30;;;5.63;;
4885;SDS011;2457;51.788;6.136;2024-01-07T03:15:33;9.07;;;5.70;;
4885;SDS011;2457;51.788;6.136;2024-01-07T03:18:00;8.37;;;5.07;;
4885;SDS011;2457;51.788;6.136;2024-01-07T03:20:28;11.60;;;5.70;;
4885;SDS011;2457;51.788;6.136;2024-01-07T03:22:55;9.70;;;6.10;;
4885;SDS011;2457;51.788;6.136;2024-01-07T03:25:22;9.57;;;5.60;;
4885;SDS011;2457;51.788;6.136;2024-01-07T03:27:50;8.53;;;5.60;;
4885;SDS011;2457;51.788;6.136;2024-01-07T03:30:17;9.00;;;4.83;;
4885;SDS011;2457;51.788;6.136;2024-01-07T03:32:44;9.23;;;5.23;;
4885;SDS011;2457;51.788;6.136;2024-01-07T03:35:12;8.97;;;5.40;;
4885;SDS011;2457;51.788;6.136;2024-01-07T03:37:39;8.60;;;5.10;;
4885;SDS011;2457;51.788;6.136;2024-01-07T03:40:12;10.10;;;5.77;;
4885;SDS011;2457;51.788;6.136;2024-01-07T03:42:35;10.10;;;5.00;;
4885;SDS011;2457;51.788;6.136;2024-01-07T03:45:03;11.07;;;5.90;;
4885;SDS011;2457;51.788;6.136;2024-01-07T03:47:31;9.40;;;5.10;;
4885;SDS011;2457;51.788;6.136;2024-01-07T03:49:58;9.30;;;5.20;;
4885;SDS011;2457;51.788;6.136;2024-01-07T03:52:26;8.53;;;4.90;;
4885;SDS011;2457;51.788;6.136;2024-01-07T03:54:54;8.93;;;5.43;;
4885;SDS011;2457;51.788;6.136;2024-01-07T03:57:22;8.13;;;4.80;;
4885;SDS011;2457;51.788;6.136;2024-01-07T03:59:50;8.07;;;5.03;;
4885;SDS011;2457;51.788;6.136;2024-01-07T04:02:17;7.60;;;4.40;;
4885;SDS011;2457;51.788;6.136;2024-01-07T04:04:45;7.03;;;4.90;;
4885;SDS011;2457;51.788;6.136;2024-01-07T04:07:12;9.37;;;5.63;;
4885;SDS011;2457;51.788;6.136;2024-01-07T04:09:39;9.80;;;5.80;;
4885;SDS011;2457;51.788;6.136;2024-01-07T04:12:07;12.03;;;5.90;;
4885;SDS011;2457;51.788;6.136;2024-01-07T04:14:34;9.50;;;5.40;;
4885;SDS011;2457;51.788;6.136;2024-01-07T04:17:01;9.93;;;5.83;;
4885;SDS011;2457;51.788;6.136;2024-01-07T04:19:29;9.60;;;4.93;;
4885;SDS011;2457;51.788;6.136;2024-01-07T04:21:56;9.70;;;5.60;;
4885;SDS011;2457;51.788;6.136;2024-01-07T04:24:28;9.37;;;5.27;;
4885;SDS011;2457;51.788;6.136;2024-01-07T04:26:53;10.27;;;6.00;;
4885;SDS011;2457;51.788;6.136;2024-01-07T04:29:20;9.73;;;5.30;;
4885;SDS011;2457;51.788;6.136;2024-01-07T04:31:47;7.80;;;5.23;;
4885;SDS011;2457;51.788;6.136;2024-01-07T04:34:15;7.97;;;5.17;;
4885;SDS011;2457;51.788;6.136;2024-01-07T04:36:42;9.03;;;4.70;;
4885;SDS011;2457;51.788;6.136;2024-01-07T04:39:10;9.53;;;5.10;;
4885;SDS011;2457;51.788;6.136;2024-01-07T04:41:37;8.47;;;4.80;;
4885;SDS011;2457;51.788;6.136;2024-01-07T04:44:05;7.73;;;5.03;;
4885;SDS011;2457;51.788;6.136;2024-01-07T04:46:40;9.20;;;5.30;;
4885;SDS011;2457;51.788;6.136;2024-01-07T04:49:04;7.70;;;5.00;;
4885;SDS011;2457;51.788;6.136;2024-01-07T04:51:33;9.80;;;4.93;;
4885;SDS011;2457;51.788;6.136;2024-01-07T04:54:02;7.93;;;4.80;;
4885;SDS011;2457;51.788;6.136;2024-01-07T04:56:29;9.60;;;5.13;;
4885;SDS011;2457;51.788;6.136;2024-01-07T04:58:57;9.40;;;5.10;;
4885;SDS011;2457;51.788;6.136;2024-01-07T05:01:27;11.10;;;5.40;;
4885;SDS011;2457;51.788;6.136;2024-01-07T05:03:53;7.50;;;4.73;;
4885;SDS011;2457;51.788;6.136;2024-01-07T05:06:21;7.63;;;4.83;;
4885;SDS011;2457;51.788;6.136;2024-01-07T05:08:48;8.03;;;4.20;;
4885;SDS011;2457;51.788;6.136;2024-01-07T05:11:16;6.97;;;4.10;;
4885;SDS011;2457;51.788;6.136;2024-01-07T05:13:43;6.30;;;4.07;;
4885;SDS011;2457;51.788;6.136;2024-01-07T05:16:19;7.90;;;4.47;;
4885;SDS011;2457;51.788;6.136;2024-01-07T05:18:47;7.77;;;4.20;;
4885;SDS011;2457;51.788;6.136;2024-01-07T05:21:15;7.63;;;5.17;;
4885;SDS011;2457;51.788;6.136;2024-01-07T05:23:42;8.80;;;4.93;;
4885;SDS011;2457;51.788;6.136;2024-01-07T05:26:11;8.80;;;4.47;;
4885;SDS011;2457;51.788;6.136;2024-01-07T05:28:39;7.10;;;4.40;;
4885;SDS011;2457;51.788;6.136;2024-01-07T05:31:13;9.07;;;5.50;;
4885;SDS011;2457;51.788;6.136;2024-01-07T05:33:35;8.83;;;5.70;;
4885;SDS011;2457;51.788;6.136;2024-01-07T05:36:02;9.50;;;5.30;;
4885;SDS011;2457;51.788;6.136;2024-01-07T05:38:31;7.50;;;4.90;;
4885;SDS011;2457;51.788;6.136;2024-01-07T05:41:00;7.33;;;4.10;;
4885;SDS011;2457;51.788;6.136;2024-01-07T05:43:27;6.90;;;4.50;;
4885;SDS011;2457;51.788;6.136;2024-01-07T05:45:55;9.27;;;5.30;;
4885;SDS011;2457;51.788;6.136;2024-01-07T05:48:22;8.43;;;4.67;;
4885;SDS011;2457;51.788;6.136;2024-01-07T05:50:49;8.63;;;4.57;;
4885;SDS011;2457;51.788;6.136;2024-01-07T05:53:17;9.53;;;5.33;;
4885;SDS011;2457;51.788;6.136;2024-01-07T05:55:45;10.20;;;5.90;;
4885;SDS011;2457;51.788;6.136;2024-01-07T05:58:12;8.87;;;5.13;;
4885;SDS011;2457;51.788;6.136;2024-01-07T06:00:44;7.13;;;5.13;;
4885;SDS011;2457;51.788;6.136;2024-01-07T06:03:10;8.30;;;5.00;;
4885;SDS011;2457;51.788;6.136;2024-01-07T06:05:40;8.40;;;5.40;;
4885;SDS011;2457;51.788;6.136;2024-01-07T06:08:08;9.50;;;5.53;;
4885;SDS011;2457;51.788;6.136;2024-01-07T06:10:36;8.00;;;5.13;;
4885;SDS011;2457;51.788;6.136;2024-01-07T06:13:03;10.53;;;6.10;;
4885;SDS011;2457;51.788;6.136;2024-01-07T06:15:31;10.17;;;5.27;;
4885;SDS011;2457;51.788;6.136;2024-01-07T06:17:58;8.63;;;5.20;;
4885;SDS011;2457;51.788;6.136;2024-01-07T06:20:25;8.17;;;4.97;;
4885;SDS011;2457;51.788;6.136;2024-01-07T06:22:53;8.40;;;4.67;;
4885;SDS011;2457;51.788;6.136;2024-01-07T06:25:21;9.67;;;5.53;;
4885;SDS011;2457;51.788;6.136;2024-01-07T06:27:49;7.23;;;4.33;;
4885;SDS011;2457;51.788;6.136;2024-01-07T06:30:16;10.33;;;4.90;;
4885;SDS011;2457;51.788;6.136;2024-01-07T06:32:45;6.93;;;4.50;;
4885;SDS011;2457;51.788;6.136;2024-01-07T06:35:14;9.97;;;4.80;;
4885;SDS011;2457;51.788;6.136;2024-01-07T06:37:47;15.43;;;5.10;;
4885;SDS011;2457;51.788;6.136;2024-01-07T06:40:11;7.77;;;4.50;;
4885;SDS011;2457;51.788;6.136;2024-01-07T06:42:39;9.83;;;4.70;;
4885;SDS011;2457;51.788;6.136;2024-01-07T06:45:07;8.27;;;5.30;;
4885;SDS011;2457;51.788;6.136;2024-01-07T06:47:35;8.20;;;5.07;;
4885;SDS011;2457;51.788;6.136;2024-01-07T06:50:07;9.30;;;5.60;;
4885;SDS011;2457;51.788;6.136;2024-01-07T06:52:32;9.03;;;4.90;;
4885;SDS011;2457;51.788;6.136;2024-01-07T06:55:01;9.50;;;5.07;;
4885;SDS011;2457;51.788;6.136;2024-01-07T06:57:28;9.67;;;5.50;;
4885;SDS011;2457;51.788;6.136;2024-01-07T06:59:55;8.60;;;5.33;;
4885;SDS011;2457;51.788;6.136;2024-01-07T07:02:23;10.27;;;5.30;;
4885;SDS011;2457;51.788;6.136;2024-01-07T07:04:50;12.13;;;5.37;;
4885;SDS011;2457;51.788;6.136;2024-01-07T07:07:17;9.20;;;5.13;;
4885;SDS011;2457;51.788;6.136;2024-01-07T07:09:44;10.17;;;5.57;;
4885;SDS011;2457;51.788;6.136;2024-01-07T07:12:12;8.33;;;5.10;;
4885;SDS011;2457;51.788;6.136;2024-01-07T07:14:40;9.73;;;5.12;;
4885;SDS011;2457;51.788;6.136;2024-01-07T07:17:07;8.10;;;5.63;;
4885;SDS011;2457;51.788;6.136;2024-01-07T07:19:35;9.20;;;5.40;;
4885;SDS011;2457;51.788;6.136;2024-01-07T07:22:02;8.93;;;5.23;;
4885;SDS011;2457;51.788;6.136;2024-01-07T07:24:29;7.83;;;4.80;;
4885;SDS011;2457;51.788;6.136;2024-01-07T07:26:57;10.03;;;5.03;;
4885;SDS011;2457;51.788;6.136;2024-01-07T07:32:11;8.70;;;4.47;;
4885;SDS011;2457;51.788;6.136;2024-01-07T07:34:38;7.97;;;4.60;;
4885;SDS011;2457;51.788;6.136;2024-01-07T07:37:05;8.90;;;4.83;;
4885;SDS011;2457;51.788;6.136;2024-01-07T07:39:32;7.43;;;4.60;;
4885;SDS011;2457;51.788;6.136;2024-01-07T07:42:00;9.00;;;4.20;;
4885;SDS011;2457;51.788;6.136;2024-01-07T07:44:27;9.07;;;5.00;;
4885;SDS011;2457;51.788;6.136;2024-01-07T07:46:54;7.70;;;4.63;;
4885;SDS011;2457;51.788;6.136;2024-01-07T07:49:21;7.53;;;4.20;;
4885;SDS011;2457;51.788;6.136;2024-01-07T07:51:49;9.07;;;4.97;;
4885;SDS011;2457;51.788;6.136;2024-01-07T07:54:17;7.93;;;4.27;;
4885;SDS011;2457;51.788;6.136;2024-01-07T07:56:44;7.27;;;4.40;;
4885;SDS011;2457;51.788;6.136;2024-01-07T07:59:11;6.97;;;4.13;;
4885;SDS011;2457;51.788;6.136;2024-01-07T08:01:38;7.23;;;3.47;;
4885;SDS011;2457;51.788;6.136;2024-01-07T08:04:06;9.43;;;3.60;;
4885;SDS011;2457;51.788;6.136;2024-01-07T08:06:34;6.40;;;3.50;;
4885;SDS011;2457;51.788;6.136;2024-01-07T08:09:01;8.00;;;3.93;;
4885;SDS011;2457;51.788;6.136;2024-01-07T08:11:29;6.70;;;3.67;;
4885;SDS011;2457;51.788;6.136;2024-01-07T08:13:56;8.03;;;3.90;;
4885;SDS011;2457;51.788;6.136;2024-01-07T08:16:23;5.83;;;3.40;;
4885;SDS011;2457;51.788;6.136;2024-01-07T08:18:51;5.90;;;3.50;;
4885;SDS011;2457;51.788;6.136;2024-01-07T08:21:18;5.77;;;3.63;;
4885;SDS011;2457;51.788;6.136;2024-01-07T08:23:46;8.57;;;4.17;;
4885;SDS011;2457;51.788;6.136;2024-01-07T08:26:17;6.70;;;3.87;;
4885;SDS011;2457;51.788;6.136;2024-01-07T08:28:42;7.57;;;4.40;;
4885;SDS011;2457;51.788;6.136;2024-01-07T08:31:10;6.40;;;3.97;;
4885;SDS011;2457;51.788;6.136;2024-01-07T08:33:37;8.10;;;3.87;;
4885;SDS011;2457;51.788;6.136;2024-01-07T08:36:05;8.83;;;4.07;;
4885;SDS011;2457;51.788;6.136;2024-01-07T08:38:32;6.73;;;3.40;;
4885;SDS011;2457;51.788;6.136;2024-01-07T08:41:00;7.47;;;4.23;;
4885;SDS011;2457;51.788;6.136;2024-01-07T08:43:27;6.17;;;3.47;;
4885;SDS011;2457;51.788;6.136;2024-01-07T08:45:54;8.33;;;3.87;;
4885;SDS011;2457;51.788;6.136;2024-01-07T08:48:22;6.93;;;3.63;;
4885;SDS011;2457;51.788;6.136;2024-01-07T08:50:49;8.00;;;3.70;;
4885;SDS011;2457;51.788;6.136;2024-01-07T08:53:17;6.47;;;3.47;;
4885;SDS011;2457;51.788;6.136;2024-01-07T08:55:46;5.90;;;3.30;;
4885;SDS011;2457;51.788;6.136;2024-01-07T08:58:14;6.70;;;3.63;;
4885;SDS011;2457;51.788;6.136;2024-01-07T09:00:41;5.60;;;3.57;;
4885;SDS011;2457;51.788;6.136;2024-01-07T09:03:09;6.97;;;3.83;;
4885;SDS011;2457;51.788;6.136;2024-01-07T09:05:36;6.33;;;3.20;;
4885;SDS011;2457;51.788;6.136;2024-01-07T09:08:04;7.00;;;3.33;;
4885;SDS011;2457;51.788;6.136;2024-01-07T09:10:33;7.20;;;3.23;;
4885;SDS011;2457;51.788;6.136;2024-01-07T09:13:00;5.40;;;3.10;;
4885;SDS011;2457;51.788;6.136;2024-01-07T09:15:29;6.67;;;3.10;;
4885;SDS011;2457;51.788;6.136;2024-01-07T09:17:56;5.70;;;3.50;;
4885;SDS011;2457;51.788;6.136;2024-01-07T09:20:23;6.30;;;3.90;;
4885;SDS011;2457;51.788;6.136;2024-01-07T09:22:51;6.67;;;3.33;;
4885;SDS011;2457;51.788;6.136;2024-01-07T09:25:18;6.60;;;3.63;;
4885;SDS011;2457;51.788;6.136;2024-01-07T09:27:45;6.20;;;3.33;;
4885;SDS011;2457;51.788;6.136;2024-01-07T09:30:13;6.03;;;3.73;;
4885;SDS011;2457;51.788;6.136;2024-01-07T09:32:42;6.60;;;3.50;;
4885;SDS011;2457;51.788;6.136;2024-01-07T09:35:09;7.80;;;3.60;;
4885;SDS011;2457;51.788;6.136;2024-01-07T09:37:36;7.40;;;3.53;;
4885;SDS011;2457;51.788;6.136;2024-01-07T09:40:04;8.90;;;4.00;;
4885;SDS011;2457;51.788;6.136;2024-01-07T09:42:34;5.80;;;3.80;;
4885;SDS011;2457;51.788;6.136;2024-01-07T09:45:02;7.90;;;4.10;;
4885;SDS011;2457;51.788;6.136;2024-01-07T09:47:31;7.30;;;3.83;;
4885;SDS011;2457;51.788;6.136;2024-01-07T09:49:58;10.10;;;4.07;;
4885;SDS011;2457;51.788;6.136;2024-01-07T09:52:26;6.07;;;3.70;;
4885;SDS011;2457;51.788;6.136;2024-01-07T09:54:56;6.27;;;3.50;;
4885;SDS011;2457;51.788;6.136;2024-01-07T09:57:22;6.57;;;3.33;;
4885;SDS011;2457;51.788;6.136;2024-01-07T09:59:49;5.97;;;3.60;;
4885;SDS011;2457;51.788;6.136;2024-01-07T10:02:16;7.73;;;4.33;;
4885;SDS011;2457;51.788;6.136;2024-01-07T10:04:44;7.90;;;3.77;;
4885;SDS011;2457;51.788;6.136;2024-01-07T10:07:12;7.60;;;4.10;;
4885;SDS011;2457;51.788;6.136;2024-01-07T10:09:40;7.10;;;4.10;;
4885;SDS011;2457;51.788;6.136;2024-01-07T10:12:08;7.93;;;4.63;;
4885;SDS011;2457;51.788;6.136;2024-01-07T10:14:36;7.80;;;4.20;;
4885;SDS011;2457;51.788;6.136;2024-01-07T10:17:05;8.50;;;4.03;;
4885;SDS011;2457;51.788;6.136;2024-01-07T10:19:32;7.30;;;3.87;;
4885;SDS011;2457;51.788;6.136;2024-01-07T10:22:02;7.53;;;3.90;;
4885;SDS011;2457;51.788;6.136;2024-01-07T10:24:35;7.87;;;4.20;;
4885;SDS011;2457;51.788;6.136;2024-01-07T10:27:05;7.00;;;3.90;;
4885;SDS011;2457;51.788;6.136;2024-01-07T10:29:32;6.53;;;3.77;;
4885;SDS011;2457;51.788;6.136;2024-01-07T10:32:00;7.63;;;3.80;;
4885;SDS011;2457;51.788;6.136;2024-01-07T10:34:32;5.90;;;2.80;;
4885;SDS011;2457;51.788;6.136;2024-01-07T10:36:59;7.00;;;3.70;;
4885;SDS011;2457;51.788;6.136;2024-01-07T10:39:27;5.47;;;3.20;;
4885;SDS011;2457;51.788;6.136;2024-01-07T10:41:59;6.43;;;3.33;;
4885;SDS011;2457;51.788;6.136;2024-01-07T10:44:29;6.93;;;3.10;;
4885;SDS011;2457;51.788;6.136;2024-01-07T10:46:55;5.33;;;3.13;;
4885;SDS011;2457;51.788;6.136;2024-01-07T10:49:24;5.90;;;2.97;;
4885;SDS011;2457;51.788;6.136;2024-01-07T10:54:27;7.60;;;3.00;;
4885;SDS011;2457;51.788;6.136;2024-01-07T10:56:57;4.80;;;2.87;;
4885;SDS011;2457;51.788;6.136;2024-01-07T10:59:24;6.90;;;3.07;;
4885;SDS011;2457;51.788;6.136;2024-01-07T11:01:51;5.03;;;2.37;;
4885;SDS011;2457;51.788;6.136;2024-01-07T11:12:05;4.70;;;2.40;;
4885;SDS011;2457;51.788;6.136;2024-01-07T11:14:37;4.70;;;2.50;;
4885;SDS011;2457;51.788;6.136;2024-01-07T11:17:06;4.93;;;2.47;;
4885;SDS011;2457;51.788;6.136;2024-01-07T11:19:38;4.27;;;2.30;;
4885;SDS011;2457;51.788;6.136;2024-01-07T11:24:49;5.50;;;2.27;;
4885;SDS011;2457;51.788;6.136;2024-01-07T11:27:17;5.33;;;2.30;;
4885;SDS011;2457;51.788;6.136;2024-01-07T11:29:50;4.67;;;2.40;;
4885;SDS011;2457;51.788;6.136;2024-01-07T11:32:13;4.40;;;2.60;;
4885;SDS011;2457;51.788;6.136;2024-01-07T11:34:42;4.67;;;2.30;;
4885;SDS011;2457;51.788;6.136;2024-01-07T11:37:17;6.30;;;2.73;;
4885;SDS011;2457;51.788;6.136;2024-01-07T11:39:45;4.53;;;2.50;;
4885;SDS011;2457;51.788;6.136;2024-01-07T11:42:12;7.20;;;3.07;;
4885;SDS011;2457;51.788;6.136;2024-01-07T11:47:15;6.47;;;2.87;;
4885;SDS011;2457;51.788;6.136;2024-01-07T11:49:43;3.80;;;2.10;;
4885;SDS011;2457;51.788;6.136;2024-01-07T11:52:10;5.53;;;2.50;;
4885;SDS011;2457;51.788;6.136;2024-01-07T11:54:38;6.73;;;2.70;;
4885;SDS011;2457;51.788;6.136;2024-01-07T11:57:06;4.00;;;2.33;;
4885;SDS011;2457;51.788;6.136;2024-01-07T11:59:33;9.10;;;2.43;;
4885;SDS011;2457;51.788;6.136;2024-01-07T12:02:01;3.90;;;2.17;;
4885;SDS011;2457;51.788;6.136;2024-01-07T12:04:33;6.10;;;2.10;;
4885;SDS011;2457;51.788;6.136;2024-01-07T12:07:00;5.20;;;2.17;;
4885;SDS011;2457;51.788;6.136;2024-01-07T12:09:29;4.97;;;2.33;;
4885;SDS011;2457;51.788;6.136;2024-01-07T12:11:57;4.10;;;1.70;;
4885;SDS011;2457;51.788;6.136;2024-01-07T12:14:25;9.43;;;3.63;;
4885;SDS011;2457;51.788;6.136;2024-01-07T12:16:52;4.13;;;1.87;;
4885;SDS011;2457;51.788;6.136;2024-01-07T12:19:20;3.53;;;1.60;;
4885;SDS011;2457;51.788;6.136;2024-01-07T12:22:00;4.30;;;1.60;;
4885;SDS011;2457;51.788;6.136;2024-01-07T12:24:24;4.90;;;1.80;;
4885;SDS011;2457;51.788;6.136;2024-01-07T12:26:48;4.30;;;1.90;;
4885;SDS011;2457;51.788;6.136;2024-01-07T12:29:15;4.27;;;1.80;;
4885;SDS011;2457;51.788;6.136;2024-01-07T12:31:44;3.63;;;1.43;;
4885;SDS011;2457;51.788;6.136;2024-01-07T12:34:13;4.10;;;1.60;;
4885;SDS011;2457;51.788;6.136;2024-01-07T12:36:40;3.40;;;1.60;;
4885;SDS011;2457;51.788;6.136;2024-01-07T12:39:07;6.60;;;1.80;;
4885;SDS011;2457;51.788;6.136;2024-01-07T12:41:34;4.03;;;1.70;;
4885;SDS011;2457;51.788;6.136;2024-01-07T12:44:02;3.80;;;1.93;;
4885;SDS011;2457;51.788;6.136;2024-01-07T12:46:29;5.83;;;1.97;;
4885;SDS011;2457;51.788;6.136;2024-01-07T12:48:57;4.53;;;2.00;;
4885;SDS011;2457;51.788;6.136;2024-01-07T12:51:25;4.80;;;2.40;;
4885;SDS011;2457;51.788;6.136;2024-01-07T12:53:52;4.30;;;2.30;;
4885;SDS011;2457;51.788;6.136;2024-01-07T12:56:19;4.70;;;2.07;;
4885;SDS011;2457;51.788;6.136;2024-01-07T12:58:48;4.53;;;2.33;;
4885;SDS011;2457;51.788;6.136;2024-01-07T13:01:15;4.63;;;2.30;;
4885;SDS011;2457;51.788;6.136;2024-01-07T13:03:42;3.40;;;2.10;;
4885;SDS011;2457;51.788;6.136;2024-01-07T13:06:10;4.43;;;2.17;;
4885;SDS011;2457;51.788;6.136;2024-01-07T13:08:37;3.53;;;2.13;;
4885;SDS011;2457;51.788;6.136;2024-01-07T13:11:05;4.23;;;2.07;;
4885;SDS011;2457;51.788;6.136;2024-01-07T13:13:34;4.20;;;2.20;;
4885;SDS011;2457;51.788;6.136;2024-01-07T13:16:01;3.60;;;2.20;;
4885;SDS011;2457;51.788;6.136;2024-01-07T13:18:28;5.17;;;2.50;;
4885;SDS011;2457;51.788;6.136;2024-01-07T13:20:56;4.30;;;2.40;;
4885;SDS011;2457;51.788;6.136;2024-01-07T13:23:23;3.90;;;2.10;;
4885;SDS011;2457;51.788;6.136;2024-01-07T13:25:50;3.30;;;2.00;;
4885;SDS011;2457;51.788;6.136;2024-01-07T13:28:18;4.30;;;1.90;;
4885;SDS011;2457;51.788;6.136;2024-01-07T13:30:46;3.93;;;1.93;;
4885;SDS011;2457;51.788;6.136;2024-01-07T13:33:13;3.60;;;2.10;;
4885;SDS011;2457;51.788;6.136;2024-01-07T13:35:42;3.00;;;1.70;;
4885;SDS011;2457;51.788;6.136;2024-01-07T13:38:09;4.50;;;2.07;;
4885;SDS011;2457;51.788;6.136;2024-01-07T13:40:37;3.87;;;2.20;;
4885;SDS011;2457;51.788;6.136;2024-01-07T13:43:04;3.87;;;2.20;;
4885;SDS011;2457;51.788;6.136;2024-01-07T13:45:31;4.40;;;2.10;;
4885;SDS011;2457;51.788;6.136;2024-01-07T13:47:59;8.07;;;2.40;;
4885;SDS011;2457;51.788;6.136;2024-01-07T13:50:26;3.70;;;1.93;;
4885;SDS011;2457;51.788;6.136;2024-01-07T13:52:53;3.13;;;1.87;;
4885;SDS011;2457;51.788;6.136;2024-01-07T13:55:21;3.20;;;1.90;;
4885;SDS011;2457;51.788;6.136;2024-01-07T13:57:49;4.40;;;2.10;;
4885;SDS011;2457;51.788;6.136;2024-01-07T14:00:17;4.50;;;1.90;;
4885;SDS011;2457;51.788;6.136;2024-01-07T14:02:46;4.73;;;2.37;;
4885;SDS011;2457;51.788;6.136;2024-01-07T14:05:15;3.37;;;1.77;;
4885;SDS011;2457;51.788;6.136;2024-01-07T14:07:42;3.87;;;1.87;;
4885;SDS011;2457;51.788;6.136;2024-01-07T14:10:09;4.27;;;2.37;;
4885;SDS011;2457;51.788;6.136;2024-01-07T14:12:37;4.43;;;2.00;;
4885;SDS011;2457;51.788;6.136;2024-01-07T14:15:04;3.70;;;2.10;;
4885;SDS011;2457;51.788;6.136;2024-01-07T14:17:32;4.43;;;2.23;;
4885;SDS011;2457;51.788;6.136;2024-01-07T14:20:00;2.90;;;1.60;;
4885;SDS011;2457;51.788;6.136;2024-01-07T14:22:27;4.53;;;1.87;;
4885;SDS011;2457;51.788;6.136;2024-01-07T14:24:55;3.37;;;1.93;;
4885;SDS011;2457;51.788;6.136;2024-01-07T14:27:22;3.93;;;2.20;;
4885;SDS011;2457;51.788;6.136;2024-01-07T14:29:50;3.30;;;1.77;;
4885;SDS011;2457;51.788;6.136;2024-01-07T14:32:17;6.57;;;2.07;;
4885;SDS011;2457;51.788;6.136;2024-01-07T14:34:45;3.10;;;1.90;;
4885;SDS011;2457;51.788;6.136;2024-01-07T14:37:12;4.30;;;2.00;;
4885;SDS011;2457;51.788;6.136;2024-01-07T14:39:39;4.33;;;2.13;;
4885;SDS011;2457;51.788;6.136;2024-01-07T14:42:07;3.40;;;2.00;;
4885;SDS011;2457;51.788;6.136;2024-01-07T14:44:35;5.03;;;2.00;;
4885;SDS011;2457;51.788;6.136;2024-01-07T14:47:02;3.10;;;1.63;;
4885;SDS011;2457;51.788;6.136;2024-01-07T14:49:30;2.90;;;1.70;;
4885;SDS011;2457;51.788;6.136;2024-01-07T14:51:58;3.83;;;2.20;;
4885;SDS011;2457;51.788;6.136;2024-01-07T14:54:25;3.20;;;1.90;;
4885;SDS011;2457;51.788;6.136;2024-01-07T14:56:52;5.13;;;2.57;;
4885;SDS011;2457;51.788;6.136;2024-01-07T14:59:20;3.37;;;1.97;;
4885;SDS011;2457;51.788;6.136;2024-01-07T15:01:47;4.07;;;2.33;;
4885;SDS011;2457;51.788;6.136;2024-01-07T15:04:14;3.30;;;1.70;;
4885;SDS011;2457;51.788;6.136;2024-01-07T15:06:42;3.10;;;1.80;;
4885;SDS011;2457;51.788;6.136;2024-01-07T15:09:11;4.87;;;2.23;;
4885;SDS011;2457;51.788;6.136;2024-01-07T15:11:40;4.40;;;2.20;;
4885;SDS011;2457;51.788;6.136;2024-01-07T15:14:08;4.40;;;2.00;;
4885;SDS011;2457;51.788;6.136;2024-01-07T15:16:36;5.73;;;2.00;;
4885;SDS011;2457;51.788;6.136;2024-01-07T15:19:03;4.27;;;2.00;;
4885;SDS011;2457;51.788;6.136;2024-01-07T15:21:30;4.10;;;2.10;;
4885;SDS011;2457;51.788;6.136;2024-01-07T15:23:58;4.07;;;2.27;;
4885;SDS011;2457;51.788;6.136;2024-01-07T15:26:25;3.50;;;1.70;;
4885;SDS011;2457;51.788;6.136;2024-01-07T15:28:52;4.97;;;2.23;;
4885;SDS011;2457;51.788;6.136;2024-01-07T15:31:20;3.70;;;2.10;;